createdAt,value
2023-03-11T00:06:04.902Z,98132.22
2023-03-11T00:16:26.720Z,98121.19
2023-03-11T00:26:48.775Z,98115.47
2023-03-11T00:37:10.270Z,98097.94
2023-03-11T00:47:31.706Z,98083.78
2023-03-11T00:58:03.443Z,98068.03
2023-03-11T01:08:35.241Z,98044.84
2023-03-11T01:18:57.253Z,98038.28
2023-03-11T01:29:18.899Z,98024.19
2023-03-11T01:39:40.842Z,98013.63
2023-03-11T01:50:07.637Z,98011.09
2023-03-11T02:00:29.511Z,98005.25
2023-03-11T02:10:53.595Z,97999.28
2023-03-11T02:21:30.143Z,97993.88
2023-03-11T02:31:57.555Z,97994.59
2023-03-11T02:42:29.396Z,97979.47
2023-03-11T02:52:52.281Z,97961.50
2023-03-11T03:03:14.335Z,97953.50
2023-03-11T03:13:36.743Z,97933.72
2023-03-11T03:23:58.582Z,97935.22
2023-03-11T03:34:20.462Z,97917.19
2023-03-11T03:44:42.676Z,97901.16
2023-03-11T03:55:05.978Z,97892.31
2023-03-11T04:05:27.905Z,97865.88
2023-03-11T04:15:51.249Z,97855.94
2023-03-11T04:26:13.401Z,97836.22
2023-03-11T04:36:35.791Z,97827.25
2023-03-11T04:46:58.021Z,97819.69
2023-03-11T04:57:19.344Z,97793.19
2023-03-11T05:07:42.406Z,97781.94
2023-03-11T05:18:05.837Z,97767.34
2023-03-11T05:28:29.947Z,97736.22
2023-03-11T05:38:53.346Z,97729.03
2023-03-11T05:49:15.510Z,97732.63
2023-03-11T05:59:38.000Z,97718.66
2023-03-11T06:10:00.152Z,97707.22
2023-03-11T06:20:22.242Z,97701.41
2023-03-11T06:30:44.684Z,97702.88
2023-03-11T06:41:10.368Z,97687.06
2023-03-11T06:51:32.025Z,97662.91
2023-03-11T07:01:53.698Z,97642.25
2023-03-11T07:12:16.053Z,97628.72
2023-03-11T07:22:38.212Z,97626.03
2023-03-11T07:32:59.600Z,97611.41
2023-03-11T07:43:21.627Z,97597.00
2023-03-11T07:53:43.613Z,97562.56
2023-03-11T08:04:08.044Z,97547.81
2023-03-11T08:14:26.314Z,97521.72
2023-03-11T08:24:52.919Z,97505.03
2023-03-11T08:35:14.430Z,97492.88
2023-03-11T08:45:36.320Z,97503.13
2023-03-11T08:55:57.989Z,97488.72
2023-03-11T09:06:19.290Z,97460.97
2023-03-11T09:16:40.516Z,97451.00
2023-03-11T09:27:02.487Z,97422.41
2023-03-11T09:37:24.073Z,97399.16
2023-03-11T09:48:07.042Z,97372.53
2023-03-11T09:58:52.494Z,97343.63
2023-03-11T10:09:47.448Z,97337.19
2023-03-11T10:20:36.212Z,97326.19
2023-03-11T13:23:43.133Z,97106.75
2023-03-11T13:34:23.425Z,97105.50
2023-03-11T13:44:46.902Z,97087.13
2023-03-11T13:55:20.672Z,97072.63
2023-03-11T14:05:46.969Z,97069.81
2023-03-11T14:16:35.950Z,97061.25
2023-03-11T14:27:02.111Z,97064.63
2023-03-11T14:37:38.367Z,97051.91
2023-03-11T14:48:24.046Z,97063.50
2023-03-11T14:59:15.294Z,97049.25
2023-03-11T15:09:40.758Z,97045.03
2023-03-11T15:20:01.995Z,97043.84
2023-03-11T15:30:25.260Z,97051.56
2023-03-11T15:40:56.492Z,97065.66
2023-03-11T15:51:20.582Z,97071.22
2023-03-11T16:01:42.149Z,97069.72
2023-03-11T16:12:15.214Z,97072.13
2023-03-11T16:22:38.386Z,97062.06
2023-03-11T16:33:02.666Z,97064.03
2023-03-11T16:43:27.161Z,97060.63
2023-03-11T16:53:48.440Z,97071.09
2023-03-11T17:04:09.657Z,97069.22
2023-03-11T17:14:25.951Z,97064.88
2023-03-11T17:24:47.474Z,97061.56
2023-03-11T17:35:09.582Z,97056.38
2023-03-11T17:45:31.580Z,97061.66
2023-03-11T17:55:52.761Z,97052.00
2023-03-11T18:06:14.577Z,97018.91
2023-03-11T18:16:35.728Z,97008.84
2023-03-11T18:26:57.621Z,97020.97
2023-03-11T18:37:18.775Z,97028.66
2023-03-11T18:47:40.603Z,97031.03
2023-03-11T18:58:01.772Z,97033.91
2023-03-11T19:08:22.971Z,97044.31
2023-03-11T19:18:44.875Z,97046.00
2023-03-11T19:29:06.088Z,97035.16
2023-03-11T19:39:27.596Z,97036.34
2023-03-11T19:49:48.870Z,97038.34
2023-03-11T20:00:12.268Z,97044.84
2023-03-11T20:10:37.359Z,97049.22
2023-03-11T20:20:58.858Z,97059.28
2023-03-11T20:31:22.888Z,97060.22
2023-03-11T20:41:44.478Z,97059.13
2023-03-11T20:52:06.028Z,97044.00
2023-03-11T21:02:30.552Z,97057.66
2023-03-11T21:12:51.854Z,97046.22
2023-03-11T21:23:13.576Z,97053.00
2023-03-11T21:33:35.386Z,97054.03
2023-03-11T21:43:57.509Z,97079.19
2023-03-11T21:54:19.174Z,97094.94
2023-03-11T22:04:41.016Z,97092.53
2023-03-11T22:15:02.229Z,97102.50
2023-03-11T22:25:23.744Z,97111.41
2023-03-11T22:35:56.958Z,97122.19
2023-03-11T22:46:18.466Z,97152.34
2023-03-11T22:56:39.904Z,97158.69
2023-03-11T23:07:00.886Z,97160.91
2023-03-11T23:17:21.784Z,97167.88
2023-03-11T23:27:44.683Z,97163.63
2023-03-11T23:38:06.175Z,97178.28
2023-03-11T23:48:27.383Z,97193.69
2023-03-11T23:58:49.276Z,97197.34
